createdAt,value
2023-02-01T00:00:28.989Z,102110.69
2023-02-01T00:05:58.486Z,102107.06
2023-02-01T00:11:20.227Z,102096.00
2023-02-01T00:16:42.113Z,102086.22
2023-02-01T00:22:03.825Z,102081.94
2023-02-01T00:27:25.568Z,102071.31
2023-02-01T00:32:47.281Z,102057.00
2023-02-01T00:38:09.014Z,102047.22
2023-02-01T00:43:32.602Z,102019.97
2023-02-01T00:48:54.856Z,102020.41
2023-02-01T00:54:16.650Z,102039.16
2023-02-01T00:59:38.395Z,102034.03
2023-02-01T01:05:00.130Z,102044.47
2023-02-01T01:10:22.436Z,102054.06
2023-02-01T01:15:44.423Z,102068.13
2023-02-01T01:21:07.759Z,102058.31
2023-02-01T01:26:31.070Z,102047.66
2023-02-01T01:31:52.886Z,102054.47
2023-02-01T01:37:14.576Z,102051.28
2023-02-01T01:42:40.575Z,102057.03
2023-02-01T01:48:19.968Z,102073.63
2023-02-01T01:54:02.745Z,102065.75
2023-02-01T01:59:25.662Z,102088.28
2023-02-01T02:04:48.576Z,102094.88
2023-02-01T02:10:12.333Z,102084.22
2023-02-01T02:15:35.232Z,102080.81
2023-02-01T02:21:24.869Z,102088.06
2023-02-01T02:26:57.512Z,102074.66
2023-02-01T02:32:46.943Z,102063.78
2023-02-01T02:38:43.244Z,102069.53
2023-02-01T02:44:52.195Z,102063.34
2023-02-01T02:50:46.387Z,102055.47
2023-02-01T02:56:29.419Z,102039.31
2023-02-01T03:02:09.662Z,102049.72
2023-02-01T03:08:05.341Z,102045.03
2023-02-01T03:13:52.024Z,102032.47
2023-02-01T03:19:31.350Z,102037.38
2023-02-01T03:24:56.479Z,102033.13
2023-02-01T03:30:24.633Z,102037.78
2023-02-01T03:36:13.645Z,102038.88
2023-02-01T03:42:10.776Z,102034.41
2023-02-01T03:47:38.914Z,102042.03
2023-02-01T03:53:07.266Z,102040.34
2023-02-01T03:58:29.091Z,102042.47
2023-02-01T04:03:52.530Z,102045.44
2023-02-01T04:09:14.273Z,102044.56
2023-02-01T04:14:36.030Z,102053.09
2023-02-01T04:19:57.827Z,102061.56
2023-02-01T04:25:19.825Z,102059.03
2023-02-01T04:30:41.948Z,102050.94
2023-02-01T04:36:03.795Z,102032.66
2023-02-01T04:41:25.806Z,102033.72
2023-02-01T04:46:48.294Z,102027.53
2023-02-01T04:52:10.457Z,102039.66
2023-02-01T04:57:32.218Z,102038.81
2023-02-01T05:02:53.919Z,102033.47
2023-02-01T05:08:15.888Z,102040.06
2023-02-01T05:13:49.816Z,102046.66
2023-02-01T05:19:11.619Z,102043.25
2023-02-01T05:24:33.372Z,102033.25
2023-02-01T05:29:55.242Z,102022.63
2023-02-01T05:35:17.070Z,102029.19
2023-02-01T05:40:38.792Z,102021.13
2023-02-01T05:46:00.675Z,102021.31
2023-02-01T05:51:22.624Z,102035.13
2023-02-01T05:56:44.321Z,102045.34
2023-02-01T06:02:06.067Z,102062.13
2023-02-01T06:07:29.637Z,102061.72
2023-02-01T06:12:51.587Z,102057.16
2023-02-01T06:18:13.478Z,102044.41
2023-02-01T06:23:36.100Z,102044.28
2023-02-01T06:28:57.875Z,102030.56
2023-02-01T06:34:22.121Z,102038.53
2023-02-01T06:39:44.011Z,102041.28
2023-02-01T06:45:07.848Z,102041.72
2023-02-01T06:50:29.777Z,102052.66
2023-02-01T06:56:03.494Z,102053.50
2023-02-01T07:01:25.211Z,102045.28
2023-02-01T07:06:47.061Z,102051.41
2023-02-01T07:12:08.814Z,102044.44
2023-02-01T07:17:30.726Z,102052.66
2023-02-01T07:22:58.705Z,102059.34
2023-02-01T07:28:20.600Z,102050.66
2023-02-01T07:33:42.996Z,102056.03
2023-02-01T07:39:05.155Z,102054.81
2023-02-01T07:44:26.917Z,102072.50
2023-02-01T07:49:48.678Z,102070.06
2023-02-01T07:55:10.473Z,102074.97
2023-02-01T08:00:51.088Z,102070.84
2023-02-01T08:06:12.956Z,102074.00
2023-02-01T08:11:37.686Z,102082.06
2023-02-01T08:16:59.679Z,102091.03
2023-02-01T08:22:21.635Z,102104.94
2023-02-01T08:27:43.394Z,102104.81
2023-02-01T08:33:09.403Z,102107.44
2023-02-01T08:38:31.179Z,102110.22
2023-02-01T08:43:55.479Z,102121.66
2023-02-01T08:49:17.164Z,102121.41
2023-02-01T08:54:40.548Z,102118.59
2023-02-01T09:00:02.604Z,102114.94
2023-02-01T09:05:35.056Z,102100.41
2023-02-01T09:11:04.741Z,102078.09
2023-02-01T09:16:27.096Z,102075.91
2023-02-01T09:21:48.774Z,102063.81
2023-02-01T09:27:10.576Z,102054.72
2023-02-01T09:32:32.290Z,102061.88
2023-02-01T09:37:54.662Z,102066.59
2023-02-01T09:43:26.731Z,102061.72
2023-02-01T09:48:50.602Z,102061.75
2023-02-01T09:54:22.916Z,102063.47
2023-02-01T09:59:48.672Z,102061.13
2023-02-01T10:05:16.534Z,102067.75
2023-02-01T10:10:50.692Z,102066.25
2023-02-01T10:16:15.524Z,102068.63
2023-02-01T10:21:55.955Z,102085.25
2023-02-01T10:27:36.595Z,102080.16
2023-02-01T10:33:15.337Z,102085.31
2023-02-01T10:38:37.103Z,102092.16
2023-02-01T10:44:01.014Z,102097.69
2023-02-01T10:49:53.817Z,102091.50
2023-02-01T10:55:39.966Z,102077.88
2023-02-01T11:01:09.132Z,102059.09
2023-02-01T11:06:49.031Z,102063.56
2023-02-01T11:12:40.104Z,102047.16
2023-02-01T11:18:17.912Z,102043.56
2023-02-01T11:23:45.932Z,102044.00
2023-02-01T11:29:14.739Z,102051.69
2023-02-01T11:34:56.878Z,102029.94
2023-02-01T11:40:18.659Z,102036.16
2023-02-01T11:45:40.905Z,102040.22
2023-02-01T11:51:24.347Z,102029.13
2023-02-01T11:57:21.187Z,102027.41
2023-02-01T12:03:13.468Z,102018.88
2023-02-01T12:08:54.675Z,102020.19
2023-02-01T12:14:47.029Z,102015.47
2023-02-01T12:20:46.642Z,102007.38
2023-02-01T12:26:30.244Z,102021.47
2023-02-01T12:32:08.808Z,102016.13
2023-02-01T12:37:42.269Z,102007.81
2023-02-01T12:43:26.980Z,102009.72
2023-02-01T12:49:13.175Z,102002.22
2023-02-01T13:00:23.580Z,101997.50
2023-02-01T13:05:56.114Z,101983.16
2023-02-01T13:11:34.353Z,101994.03
2023-02-01T13:17:28.990Z,101992.53
2023-02-01T13:23:18.794Z,102008.13
2023-02-01T13:29:05.950Z,101978.69
2023-02-01T13:34:47.624Z,102006.25
2023-02-01T13:40:46.664Z,101999.66
2023-02-01T13:46:14.588Z,102011.44
2023-02-01T13:51:49.270Z,102013.75
2023-02-01T13:57:37.674Z,102014.22
2023-02-01T14:03:02.264Z,102006.97
2023-02-01T14:08:38.368Z,102005.50
2023-02-01T14:14:08.366Z,102015.09
2023-02-01T14:19:34.603Z,102024.91
2023-02-01T14:24:58.139Z,102019.56
2023-02-01T14:30:20.686Z,102016.59
2023-02-01T14:35:42.550Z,102028.75
2023-02-01T14:41:34.394Z,102019.38
2023-02-01T14:47:27.044Z,102032.75
2023-02-01T14:53:16.553Z,102020.84
2023-02-01T14:58:42.357Z,102035.13
2023-02-01T15:04:19.534Z,102038.13
2023-02-01T15:09:47.078Z,102049.22
2023-02-01T15:15:18.542Z,102038.34
2023-02-01T15:20:40.232Z,102050.50
2023-02-01T15:26:33.186Z,102043.69
2023-02-01T15:31:55.313Z,102053.06
2023-02-01T15:37:19.610Z,102058.59
2023-02-01T15:42:54.410Z,102059.44
2023-02-01T15:48:23.740Z,102050.06
2023-02-01T15:53:58.111Z,102055.59
2023-02-01T15:59:23.916Z,102062.00
2023-02-01T16:04:52.397Z,102074.81
2023-02-01T16:10:28.495Z,102076.47
2023-02-01T16:15:50.601Z,102076.50
2023-02-01T16:21:13.047Z,102090.81
2023-02-01T16:26:35.481Z,102078.00
2023-02-01T16:31:57.332Z,102084.41
2023-02-01T16:37:24.117Z,102089.53
2023-02-01T16:42:49.004Z,102091.88
2023-02-01T16:48:20.427Z,102090.97
2023-02-01T16:53:53.890Z,102092.41
2023-02-01T16:59:16.595Z,102092.78
2023-02-01T17:04:38.489Z,102102.75
2023-02-01T17:10:00.425Z,102112.94
2023-02-01T17:15:22.515Z,102108.59
2023-02-01T17:20:44.810Z,102107.25
2023-02-01T17:26:10.727Z,102108.69
2023-02-01T17:31:37.336Z,102107.19
2023-02-01T17:36:59.172Z,102119.75
2023-02-01T17:42:21.254Z,102125.53
2023-02-01T17:47:42.963Z,102119.16
2023-02-01T17:53:10.072Z,102108.34
2023-02-01T17:58:33.720Z,102113.53
2023-02-01T18:03:55.527Z,102121.91
2023-02-01T18:09:17.319Z,102114.69
2023-02-01T18:14:38.987Z,102120.47
2023-02-01T18:20:00.796Z,102113.44
2023-02-01T18:25:25.785Z,102113.44
2023-02-01T18:30:51.013Z,102122.72
2023-02-01T18:36:13.464Z,102122.44
2023-02-01T18:41:35.382Z,102122.06
2023-02-01T18:46:57.430Z,102119.06
2023-02-01T18:52:19.087Z,102116.38
2023-02-01T18:57:41.204Z,102115.97
2023-02-01T19:03:02.971Z,102110.66
2023-02-01T19:08:25.961Z,102109.28
2023-02-01T19:13:50.670Z,102118.88
2023-02-01T19:19:12.339Z,102122.00
2023-02-01T19:24:34.017Z,102127.94
2023-02-01T19:29:55.888Z,102119.38
2023-02-01T19:35:22.483Z,102117.72
2023-02-01T19:40:44.944Z,102113.88
2023-02-01T19:46:06.770Z,102110.19
2023-02-01T19:51:28.494Z,102126.56
2023-02-01T19:56:51.261Z,102129.34
2023-02-01T20:02:15.712Z,102130.06
2023-02-01T20:07:37.724Z,102119.19
2023-02-01T20:12:59.591Z,102122.94
2023-02-01T20:18:21.619Z,102127.13
2023-02-01T20:23:46.430Z,102133.19
2023-02-01T20:29:09.593Z,102131.38
2023-02-01T20:34:31.323Z,102125.16
2023-02-01T20:39:53.117Z,102130.50
2023-02-01T20:45:18.017Z,102123.81
2023-02-01T20:50:40.009Z,102129.88
2023-02-01T20:56:01.798Z,102131.78
2023-02-01T21:01:23.515Z,102132.69
2023-02-01T21:06:45.708Z,102132.97
2023-02-01T21:12:07.757Z,102134.78
2023-02-01T21:17:33.337Z,102138.28
2023-02-01T21:22:55.753Z,102140.09
2023-02-01T21:28:17.488Z,102136.13
2023-02-01T21:33:39.606Z,102139.38
2023-02-01T21:39:05.984Z,102147.59
2023-02-01T21:44:27.790Z,102156.78
2023-02-01T21:49:49.628Z,102151.41
2023-02-01T21:55:13.492Z,102161.22
2023-02-01T22:00:35.221Z,102163.81
2023-02-01T22:05:57.011Z,102164.44
2023-02-01T22:11:19.104Z,102161.22
2023-02-01T22:16:41.750Z,102169.94
2023-02-01T22:22:03.535Z,102168.13
2023-02-01T22:27:30.490Z,102172.75
2023-02-01T22:33:06.992Z,102169.00
2023-02-01T22:38:33.339Z,102184.47
2023-02-01T22:43:55.147Z,102191.66
2023-02-01T22:49:17.395Z,102193.59
2023-02-01T22:54:40.284Z,102194.97
2023-02-01T23:00:02.104Z,102198.00
2023-02-01T23:05:24.043Z,102196.34
2023-02-01T23:10:45.906Z,102196.81
2023-02-01T23:16:10.315Z,102184.28
2023-02-01T23:21:32.859Z,102188.78
2023-02-01T23:26:54.753Z,102189.66
2023-02-01T23:32:17.404Z,102198.66
2023-02-01T23:37:40.921Z,102195.72
2023-02-01T23:43:21.509Z,102198.28
2023-02-01T23:48:44.730Z,102197.00
2023-02-01T23:54:07.988Z,102199.38
2023-02-01T23:59:32.196Z,102200.06
